createdAt,value
2018-11-20T00:01:56.034Z,11.20
2018-11-20T00:04:40.969Z,10.83
2018-11-20T00:07:46.236Z,11.17
2018-11-20T00:10:42.786Z,11.83
2018-11-20T00:13:19.940Z,14.60
2018-11-20T00:16:03.257Z,11.80
2018-11-20T00:18:53.782Z,12.43
2018-11-20T00:21:44.418Z,11.57
2018-11-20T00:24:50.252Z,13.23
2018-11-20T00:27:43.855Z,14.20
2018-11-20T00:30:31.418Z,12.30
2018-11-20T00:33:19.033Z,18.40
2018-11-20T00:36:02.377Z,14.57
2018-11-20T00:38:55.263Z,14.27
2018-11-20T00:41:48.721Z,13.40
2018-11-20T00:44:35.220Z,16.23
2018-11-20T00:47:21.271Z,16.77
2018-11-20T00:50:14.435Z,14.80
2018-11-20T00:53:02.018Z,15.03
2018-11-20T00:56:28.757Z,15.37
2018-11-20T00:59:22.157Z,15.97
2018-11-20T01:01:59.078Z,18.77
2018-11-20T01:04:59.320Z,15.73
2018-11-20T01:07:51.829Z,15.73
2018-11-20T01:10:38.089Z,19.20
2018-11-20T01:13:24.132Z,18.20
2018-11-20T01:16:11.658Z,19.93
2018-11-20T01:18:59.265Z,15.63
2018-11-20T01:21:45.673Z,19.77
2018-11-20T01:24:45.416Z,21.47
2018-11-20T01:27:28.209Z,19.00
2018-11-20T01:30:17.369Z,18.77
2018-11-20T01:33:19.934Z,19.20
2018-11-20T01:36:25.479Z,18.77
2018-11-20T01:39:01.647Z,20.40
2018-11-20T01:41:51.662Z,19.43
2018-11-20T01:44:39.261Z,20.87
2018-11-20T01:47:32.769Z,22.77
2018-11-20T01:50:23.090Z,20.47
2018-11-20T01:53:16.614Z,22.03
2018-11-20T01:56:04.310Z,20.40
2018-11-20T01:58:48.685Z,21.20
2018-11-20T02:01:34.839Z,20.93
2018-11-20T02:04:28.529Z,23.10
2018-11-20T02:07:28.687Z,24.37
2018-11-20T02:10:22.519Z,24.37
2018-11-20T02:13:55.089Z,22.37
2018-11-20T02:16:51.717Z,23.60
2018-11-20T02:19:45.051Z,22.97
2018-11-20T02:22:23.314Z,23.27
2018-11-20T02:25:26.013Z,25.17
2018-11-20T02:28:31.973Z,24.73
2018-11-20T02:31:28.275Z,25.17
2018-11-20T02:34:16.498Z,23.43
2018-11-20T02:37:04.108Z,24.57
2018-11-20T02:39:50.004Z,26.07
2018-11-20T02:42:52.745Z,25.70
2018-11-20T02:45:42.987Z,22.77
2018-11-20T02:48:45.574Z,21.83
2018-11-20T02:51:50.879Z,22.77
2018-11-20T02:54:36.815Z,23.83
2018-11-20T02:57:26.755Z,24.00
2018-11-20T03:00:10.803Z,22.03
2018-11-20T03:02:51.362Z,23.47
2018-11-20T03:05:37.232Z,20.87
2018-11-20T03:08:30.725Z,21.07
2018-11-20T03:11:24.084Z,21.87
2018-11-20T03:14:10.227Z,24.80
2018-11-20T03:17:15.930Z,22.67
2018-11-20T03:20:02.286Z,18.83
2018-11-20T03:22:48.541Z,21.67
2018-11-20T03:26:01.023Z,22.60
2018-11-20T03:28:54.400Z,21.37
2018-11-20T03:31:49.553Z,21.47
2018-11-20T03:34:35.996Z,19.83
2018-11-20T03:37:32.665Z,20.43
2018-11-20T03:40:20.273Z,18.47
2018-11-20T03:43:06.672Z,22.53
2018-11-20T03:45:54.259Z,21.93
2018-11-20T03:48:41.824Z,22.20
2018-11-20T03:51:35.164Z,23.27
2018-11-20T03:54:31.756Z,21.37
2018-11-20T03:57:10.409Z,21.57
2018-11-20T03:59:58.029Z,19.20
2018-11-20T04:02:49.621Z,21.20
2018-11-20T04:05:46.198Z,22.17
2018-11-20T04:13:30.888Z,22.17
2018-11-20T04:16:16.139Z,20.80
2018-11-20T04:19:01.883Z,21.60
2018-11-20T04:21:47.351Z,19.30
2018-11-20T04:24:34.158Z,24.67
2018-11-20T04:27:19.818Z,22.50
2018-11-20T04:30:06.848Z,24.10
2018-11-20T04:33:01.102Z,22.03
2018-11-20T04:35:52.745Z,24.00
2018-11-20T04:38:45.143Z,23.33
2018-11-20T04:41:33.025Z,21.23
2018-11-20T04:44:19.860Z,22.67
2018-11-20T04:47:05.689Z,24.03
2018-11-20T04:49:52.529Z,22.90
2018-11-20T04:52:34.551Z,23.03
2018-11-20T04:55:21.386Z,22.23
2018-11-20T04:58:14.714Z,20.33
2018-11-20T05:01:13.469Z,23.87
2018-11-20T05:03:53.699Z,21.53
2018-11-20T05:06:39.179Z,22.97
2018-11-20T05:09:44.355Z,22.30
2018-11-20T05:12:29.853Z,22.20
2018-11-20T05:15:28.446Z,24.40
2018-11-20T05:18:16.013Z,21.97
2018-11-20T05:21:01.909Z,20.33
2018-11-20T05:23:48.764Z,21.80
2018-11-20T05:26:34.038Z,24.63
2018-11-20T05:29:19.396Z,24.07
2018-11-20T05:32:06.214Z,22.77
2018-11-20T05:35:04.853Z,21.93
2018-11-20T05:37:55.781Z,21.40
2018-11-20T05:40:48.761Z,19.50
2018-11-20T05:43:47.479Z,23.77
2018-11-20T05:46:34.354Z,21.77
2018-11-20T05:49:21.167Z,23.27
2018-11-20T05:52:05.212Z,23.73
2018-11-20T05:54:50.705Z,23.77
2018-11-20T05:57:36.220Z,22.83
2018-11-20T06:00:31.695Z,23.67
2018-11-20T06:03:21.085Z,21.47
2018-11-20T06:06:10.885Z,24.57
2018-11-20T06:09:06.559Z,23.13
2018-11-20T06:11:59.304Z,23.47
2018-11-20T06:14:44.825Z,23.17
2018-11-20T06:17:34.272Z,22.00
2018-11-20T06:20:21.078Z,23.87
2018-11-20T06:23:06.349Z,22.83
2018-11-20T06:25:51.540Z,22.50
2018-11-20T06:28:47.667Z,25.23
2018-11-20T06:31:41.841Z,23.60
2018-11-20T06:34:37.302Z,23.63
2018-11-20T06:37:22.772Z,22.10
2018-11-20T06:40:03.490Z,24.20
2018-11-20T06:42:48.859Z,25.37
2018-11-20T06:45:38.675Z,26.93
2018-11-20T06:48:30.006Z,24.60
2018-11-20T06:51:20.757Z,22.20
2018-11-20T06:54:19.768Z,24.67
2018-11-20T06:57:05.466Z,25.80
2018-11-20T07:00:01.246Z,25.10
2018-11-20T07:02:50.635Z,24.53
2018-11-20T07:05:40.447Z,28.90
2018-11-20T07:08:30.335Z,26.37
2018-11-20T07:11:29.751Z,25.33
2018-11-20T07:14:39.946Z,23.97
2018-11-20T07:17:33.745Z,24.37
2018-11-20T07:20:19.618Z,26.60
2018-11-20T07:22:53.681Z,25.27
2018-11-20T07:25:58.929Z,25.13
2018-11-20T07:28:54.954Z,25.63
2018-11-20T07:31:41.009Z,25.27
2018-11-20T07:34:27.592Z,26.63
2018-11-20T07:37:13.257Z,26.80
2018-11-20T07:39:58.609Z,25.97
2018-11-20T07:42:48.111Z,26.83
2018-11-20T07:45:34.129Z,26.00
2018-11-20T07:48:19.561Z,26.97
2018-11-20T07:51:11.991Z,27.93
2018-11-20T07:53:57.561Z,26.00
2018-11-20T07:56:50.069Z,30.53
2018-11-20T07:59:35.423Z,28.00
2018-11-20T08:02:28.346Z,26.90
2018-11-20T08:05:24.114Z,26.27
2018-11-20T08:08:10.979Z,26.17
2018-11-20T08:10:56.635Z,26.97
2018-11-20T08:13:43.548Z,28.20
2018-11-20T08:16:36.261Z,27.60
2018-11-20T08:19:25.810Z,25.30
2018-11-20T08:22:12.690Z,25.50
2018-11-20T08:25:14.734Z,26.47
2018-11-20T08:28:00.465Z,29.70
2018-11-20T08:30:47.410Z,28.93
2018-11-20T08:33:49.559Z,29.27
2018-11-20T08:36:41.872Z,27.33
2018-11-20T08:39:43.835Z,29.10
2018-11-20T08:42:49.109Z,30.40
2018-11-20T08:45:26.874Z,27.80
2018-11-20T08:48:17.257Z,27.07
2018-11-20T08:51:12.920Z,27.10
2018-11-20T08:54:17.719Z,29.17
2018-11-20T08:57:04.224Z,26.80
2018-11-20T08:59:49.624Z,32.17
2018-11-20T09:02:35.284Z,30.47
2018-11-20T09:05:30.725Z,28.87
2018-11-20T09:08:17.505Z,27.60
2018-11-20T09:11:03.082Z,29.87
2018-11-20T09:13:43.812Z,24.83
2018-11-20T09:16:30.649Z,27.80
2018-11-20T09:19:29.478Z,29.10
2018-11-20T09:22:15.054Z,28.87
2018-11-20T09:25:13.665Z,28.57
2018-11-20T09:27:52.111Z,32.57
2018-11-20T09:30:48.934Z,27.80
2018-11-20T09:33:30.409Z,24.57
2018-11-20T09:36:19.874Z,30.97
2018-11-20T09:39:09.587Z,31.03
2018-11-20T09:41:56.410Z,27.00
2018-11-20T09:44:49.866Z,30.23
2018-11-20T09:47:35.410Z,28.20
2018-11-20T09:50:19.795Z,26.17
2018-11-20T09:53:21.569Z,30.40
2018-11-20T09:56:08.523Z,30.03
2018-11-20T09:58:54.603Z,30.40
2018-11-20T10:01:34.106Z,29.00
2018-11-20T10:04:13.318Z,28.77
2018-11-20T10:07:00.224Z,30.77
2018-11-20T10:09:55.710Z,27.13
2018-11-20T10:12:43.434Z,28.50
2018-11-20T10:15:20.855Z,27.87
2018-11-20T10:18:10.134Z,29.73
2018-11-20T10:20:59.729Z,28.13
2018-11-20T10:23:49.611Z,29.50
2018-11-20T10:26:41.896Z,28.97
2018-11-20T10:29:34.256Z,26.70
2018-11-20T10:32:31.011Z,26.43
2018-11-20T10:35:26.756Z,30.97
2018-11-20T10:38:19.232Z,25.67
2018-11-20T10:40:57.314Z,28.67
2018-11-20T10:43:42.616Z,27.40
2018-11-20T10:46:20.283Z,29.07
2018-11-20T10:49:06.688Z,28.17
2018-11-20T10:51:55.967Z,29.87
2018-11-20T10:54:46.410Z,29.67
2018-11-20T10:57:42.250Z,26.57
2018-11-20T11:00:28.287Z,25.77
2018-11-20T11:03:13.738Z,26.97
2018-11-20T11:06:18.892Z,28.20
2018-11-20T11:09:22.056Z,24.87
2018-11-20T11:12:27.143Z,27.47
2018-11-20T11:15:23.090Z,26.83
2018-11-20T11:18:28.261Z,26.17
2018-11-20T11:21:14.985Z,29.80
2018-11-20T11:24:01.807Z,27.33
2018-11-20T11:26:51.727Z,31.53
2018-11-20T11:29:44.381Z,26.80
2018-11-20T11:32:43.182Z,29.50
2018-11-20T11:35:34.422Z,30.80
2018-11-20T11:38:23.984Z,28.93
2018-11-20T11:41:23.196Z,27.10
2018-11-20T11:44:12.881Z,30.00
2018-11-20T11:46:58.615Z,25.50
2018-11-20T11:49:44.021Z,27.83
2018-11-20T11:52:30.825Z,26.20
2018-11-20T11:55:13.705Z,28.17
2018-11-20T11:58:00.001Z,25.27
2018-11-20T12:00:46.537Z,28.03
2018-11-20T12:03:31.975Z,29.43
2018-11-20T12:06:30.664Z,27.40
2018-11-20T12:09:17.048Z,31.03
2018-11-20T12:12:06.578Z,27.80
2018-11-20T12:14:52.148Z,27.43
2018-11-20T12:17:39.013Z,26.17
2018-11-20T12:20:24.428Z,28.03
2018-11-20T12:23:02.151Z,28.03
2018-11-20T12:25:53.948Z,31.93
2018-11-20T12:28:39.274Z,26.57
2018-11-20T12:31:24.635Z,31.40
2018-11-20T12:34:10.014Z,28.43
2018-11-20T12:36:55.243Z,29.83
2018-11-20T12:39:44.713Z,27.23
2018-11-20T12:42:30.232Z,29.50
2018-11-20T12:45:25.851Z,27.90
2018-11-20T12:48:11.521Z,29.47
2018-11-20T12:51:05.492Z,31.30
2018-11-20T12:53:49.762Z,28.20
2018-11-20T12:56:35.681Z,26.60
2018-11-20T12:59:21.261Z,29.40
2018-11-20T13:02:06.991Z,30.83
2018-11-20T13:04:52.306Z,28.77
2018-11-20T13:07:37.633Z,35.17
2018-11-20T13:10:24.041Z,30.17
2018-11-20T13:13:22.833Z,30.63
2018-11-20T13:16:15.291Z,30.03
2018-11-20T13:19:02.116Z,29.70
2018-11-20T13:21:58.481Z,32.13
2018-11-20T13:24:41.714Z,31.00
2018-11-20T13:27:43.445Z,29.63
2018-11-20T13:30:29.113Z,29.17
2018-11-20T13:33:20.391Z,32.30
2018-11-20T13:36:08.200Z,31.03
2018-11-20T13:39:03.756Z,28.73
2018-11-20T13:42:00.323Z,36.07
2018-11-20T13:45:01.843Z,30.43
2018-11-20T13:47:52.203Z,31.53
2018-11-20T13:50:53.421Z,30.60
2018-11-20T13:53:55.265Z,31.27
2018-11-20T13:56:30.310Z,31.27
2018-11-20T13:59:15.685Z,35.90
2018-11-20T14:02:01.040Z,30.53
2018-11-20T14:05:00.173Z,35.00
2018-11-20T14:07:55.773Z,34.27
2018-11-20T14:10:39.726Z,30.53
2018-11-20T14:13:25.188Z,31.07
2018-11-20T14:16:10.456Z,33.83
2018-11-20T14:19:18.547Z,32.93
2018-11-20T14:22:02.388Z,34.17
2018-11-20T14:24:47.679Z,31.83
2018-11-20T14:27:34.748Z,34.47
2018-11-20T14:30:27.717Z,36.53
2018-11-20T14:33:21.036Z,35.10
2018-11-20T14:36:06.869Z,31.93
2018-11-20T14:38:56.485Z,33.57
2018-11-20T14:41:37.377Z,34.03
2018-11-20T14:44:21.282Z,32.00
2018-11-20T14:47:07.804Z,35.73
2018-11-20T14:49:53.224Z,34.23
2018-11-20T14:52:33.328Z,33.70
2018-11-20T14:55:19.053Z,37.97
2018-11-20T14:58:04.921Z,32.40
2018-11-20T15:00:51.716Z,33.33
2018-11-20T15:03:53.560Z,36.53
2018-11-20T15:06:46.571Z,33.27
2018-11-20T15:09:44.719Z,37.37
2018-11-20T15:12:34.324Z,37.33
2018-11-20T15:15:20.023Z,34.23
2018-11-20T15:18:21.739Z,32.20
2018-11-20T15:21:17.528Z,30.70
2018-11-20T15:24:10.061Z,32.37
2018-11-20T15:26:55.966Z,34.03
2018-11-20T15:30:01.939Z,29.43
2018-11-20T15:32:47.635Z,32.27
2018-11-20T15:35:33.131Z,28.93
2018-11-20T15:38:28.902Z,30.23
2018-11-20T15:41:15.741Z,25.57
2018-11-20T15:44:08.449Z,26.13
2018-11-20T15:46:54.175Z,27.20
2018-11-20T15:49:35.175Z,29.10
2018-11-20T15:52:25.877Z,24.67
2018-11-20T15:55:24.020Z,27.03
2018-11-20T15:58:13.885Z,22.30
2018-11-20T16:00:59.366Z,21.50
2018-11-20T16:03:56.605Z,24.30
2018-11-20T16:06:43.432Z,23.03
2018-11-20T16:09:33.135Z,20.20
2018-11-20T16:12:28.644Z,23.37
2018-11-20T16:15:15.569Z,21.33
2018-11-20T16:18:17.566Z,19.63
2018-11-20T16:21:19.388Z,21.50
2018-11-20T16:24:12.116Z,20.43
2018-11-20T16:26:57.601Z,22.40
2018-11-20T16:29:56.421Z,19.43
2018-11-20T16:32:43.380Z,19.73
2018-11-20T16:35:38.905Z,20.33
2018-11-20T16:38:16.270Z,19.27
2018-11-20T16:41:05.710Z,18.47
2018-11-20T16:44:04.659Z,19.27
2018-11-20T16:46:50.312Z,19.77
2018-11-20T16:49:36.839Z,20.53
2018-11-20T16:52:39.158Z,19.17
2018-11-20T16:55:25.457Z,18.63
2018-11-20T16:58:14.844Z,19.90
2018-11-20T17:00:51.397Z,20.47
2018-11-20T17:03:47.513Z,18.87
2018-11-20T17:06:33.047Z,20.30
2018-11-20T17:09:34.956Z,19.97
2018-11-20T17:12:30.741Z,21.60
2018-11-20T17:15:20.474Z,18.70
2018-11-20T17:17:58.161Z,21.77
2018-11-20T17:20:43.957Z,20.10
2018-11-20T17:23:29.191Z,19.40
2018-11-20T17:26:15.400Z,19.90
2018-11-20T17:29:05.090Z,18.20
2018-11-20T17:31:57.816Z,18.57
2018-11-20T17:34:43.615Z,20.60
2018-11-20T17:37:33.596Z,21.50
2018-11-20T17:40:21.068Z,21.33
2018-11-20T17:43:04.833Z,21.77
2018-11-20T17:45:54.283Z,23.23
2018-11-20T17:48:39.755Z,21.40
2018-11-20T17:51:25.260Z,20.90
2018-11-20T17:54:20.892Z,19.20
2018-11-20T17:57:06.693Z,20.47
2018-11-20T17:59:47.358Z,22.50
2018-11-20T18:02:46.309Z,22.90
2018-11-20T18:05:31.561Z,20.90
2018-11-20T18:08:16.829Z,21.03
2018-11-20T18:11:02.052Z,22.53
2018-11-20T18:14:01.813Z,24.47
2018-11-20T18:16:43.123Z,23.53
2018-11-20T18:19:31.534Z,21.00
2018-11-20T18:22:23.957Z,21.60
2018-11-20T18:25:19.934Z,21.87
2018-11-20T18:28:00.854Z,23.37
2018-11-20T18:31:06.047Z,21.70
2018-11-20T18:34:08.260Z,21.63
2018-11-20T18:37:00.896Z,21.80
2018-11-20T18:40:00.543Z,21.23
2018-11-20T18:42:43.227Z,21.63
2018-11-20T18:45:39.374Z,23.23
2018-11-20T18:48:44.559Z,22.20
2018-11-20T18:51:43.572Z,19.33
2018-11-20T18:54:30.418Z,21.17
2018-11-20T18:57:20.260Z,20.70
2018-11-20T19:00:06.264Z,23.43
2018-11-20T19:03:05.368Z,21.50
2018-11-20T19:05:50.941Z,20.87
2018-11-20T19:08:26.335Z,21.10
2018-11-20T19:11:12.419Z,21.33
2018-11-20T19:13:58.029Z,22.20
2018-11-20T19:16:50.775Z,20.57
2018-11-20T19:19:37.894Z,18.97
2018-11-20T19:22:19.420Z,20.83
2018-11-20T19:25:06.409Z,21.83
2018-11-20T19:28:03.319Z,20.20
2018-11-20T19:30:55.021Z,21.83
2018-11-20T19:33:51.453Z,19.23
2018-11-20T19:36:36.819Z,19.67
2018-11-20T19:39:26.712Z,19.93
2018-11-20T19:42:10.960Z,20.13
2018-11-20T19:45:10.553Z,20.47
2018-11-20T19:47:57.623Z,20.90
2018-11-20T19:50:44.494Z,17.33
2018-11-20T19:53:41.121Z,17.60
2018-11-20T19:56:40.172Z,19.40
2018-11-20T19:59:42.295Z,17.50
2018-11-20T20:02:27.575Z,21.47
2018-11-20T20:05:17.183Z,17.77
2018-11-20T20:08:06.835Z,17.57
2018-11-20T20:10:52.540Z,18.70
2018-11-20T20:13:51.078Z,19.67
2018-11-20T20:16:31.158Z,19.03
2018-11-20T20:19:10.572Z,19.87
2018-11-20T20:21:56.449Z,19.63
2018-11-20T20:24:42.079Z,18.90
2018-11-20T20:27:30.526Z,19.93
2018-11-20T20:30:26.486Z,20.03
2018-11-20T20:33:20.797Z,18.23
2018-11-20T20:36:10.059Z,19.23
2018-11-20T20:38:55.428Z,16.97
2018-11-20T20:41:54.365Z,21.50
2018-11-20T20:44:44.069Z,18.97
2018-11-20T20:47:46.606Z,18.77
2018-11-20T20:50:25.599Z,19.73
2018-11-20T20:53:24.885Z,21.53
2018-11-20T20:56:11.947Z,16.43
2018-11-20T20:59:01.828Z,21.37
2018-11-20T21:01:39.959Z,20.50
2018-11-20T21:04:35.681Z,18.90
2018-11-20T21:07:31.432Z,20.60
2018-11-20T21:10:16.953Z,22.27
2018-11-20T21:13:02.549Z,19.27
2018-11-20T21:15:52.084Z,19.00
2018-11-20T21:18:48.024Z,22.27
2018-11-20T21:21:38.387Z,22.13
2018-11-20T21:24:19.282Z,23.33
2018-11-20T21:27:12.089Z,20.97
2018-11-20T21:30:05.067Z,22.67
2018-11-20T21:32:50.459Z,22.73
2018-11-20T21:35:36.158Z,23.17
2018-11-20T21:38:28.952Z,24.33
2018-11-20T21:41:15.917Z,23.10
2018-11-20T21:44:18.238Z,23.40
2018-11-20T21:47:03.967Z,23.63
2018-11-20T21:49:53.608Z,25.33
2018-11-20T21:52:46.370Z,21.60
2018-11-20T21:55:48.143Z,22.50
2018-11-20T21:58:33.435Z,26.37
2018-11-20T22:01:21.403Z,25.27
2018-11-20T22:04:06.889Z,26.00
2018-11-20T22:07:02.591Z,22.97
2018-11-20T22:09:48.114Z,25.67
2018-11-20T22:12:34.111Z,24.53
2018-11-20T22:15:19.333Z,25.00
2018-11-20T22:18:11.998Z,27.43
2018-11-20T22:21:01.601Z,23.40
2018-11-20T22:23:48.437Z,24.43
2018-11-20T22:26:35.347Z,27.83
2018-11-20T22:29:22.183Z,24.20
2018-11-20T22:32:07.877Z,23.70
2018-11-20T22:35:03.410Z,25.97
2018-11-20T22:37:43.504Z,29.57
2018-11-20T22:40:35.504Z,25.90
2018-11-20T22:43:21.095Z,24.50
2018-11-20T22:46:22.849Z,27.47
2018-11-20T22:49:01.946Z,26.20
2018-11-20T22:51:36.436Z,23.27
2018-11-20T22:54:36.213Z,24.30
2018-11-20T22:57:26.111Z,27.97
2018-11-20T23:00:11.627Z,26.97
2018-11-20T23:02:58.462Z,23.93
2018-11-20T23:05:51.023Z,27.13
2018-11-20T23:08:18.303Z,27.80
2018-11-20T23:10:45.552Z,29.43
2018-11-20T23:13:12.883Z,29.30
2018-11-20T23:15:40.152Z,29.67
2018-11-20T23:18:07.386Z,29.60
2018-11-20T23:20:34.741Z,30.40
2018-11-20T23:23:02.043Z,27.17
2018-11-20T23:25:29.300Z,33.77
2018-11-20T23:27:56.538Z,30.57
2018-11-20T23:30:23.770Z,35.27
2018-11-20T23:32:51.075Z,30.57
2018-11-20T23:35:18.305Z,31.27
2018-11-20T23:37:45.541Z,34.33
2018-11-20T23:40:13.406Z,30.13
2018-11-20T23:42:40.620Z,31.10
2018-11-20T23:45:09.191Z,33.87
2018-11-20T23:47:36.522Z,32.00
2018-11-20T23:50:04.775Z,33.60
2018-11-20T23:52:32.008Z,37.47
2018-11-20T23:54:59.349Z,37.93
2018-11-20T23:57:27.884Z,39.57
2018-11-20T23:59:55.089Z,34.87
